sensor_id;sensor_type;location;lat;lon;timestamp;pressure;altitude;pressure_sealevel;temperature;humidity
47935;BME280;33704;43.592;-79.628;2023-11-19T00:00:14;99203.25;;;36.45;22.24
47935;BME280;33704;43.592;-79.628;2023-11-19T00:00:46;99207.34;;;36.48;22.54
47935;BME280;33704;43.592;-79.628;2023-11-19T00:01:18;99204.77;;;36.49;22.44
47935;BME280;33704;43.592;-79.628;2023-11-19T00:01:50;99199.56;;;36.46;22.16
47935;BME280;33704;43.592;-79.628;2023-11-19T00:02:22;99198.32;;;36.47;22.22
47935;BME280;33704;43.592;-79.628;2023-11-19T00:02:54;99196.89;;;36.45;22.71
47935;BME280;33704;43.592;-79.628;2023-11-19T00:03:26;99198.40;;;36.42;21.73
47935;BME280;33704;43.592;-79.628;2023-11-19T00:03:57;99198.17;;;36.45;22.22
47935;BME280;33704;43.592;-79.628;2023-11-19T00:04:30;99196.16;;;36.47;22.30
47935;BME280;33704;43.592;-79.628;2023-11-19T00:05:03;99198.14;;;36.50;21.98
47935;BME280;33704;43.592;-79.628;2023-11-19T00:05:34;99195.82;;;36.50;22.24
47935;BME280;33704;43.592;-79.628;2023-11-19T00:06:07;99198.26;;;36.47;22.35
47935;BME280;33704;43.592;-79.628;2023-11-19T00:06:39;99195.00;;;36.46;21.60
47935;BME280;33704;43.592;-79.628;2023-11-19T00:07:11;99197.14;;;36.49;21.60
47935;BME280;33704;43.592;-79.628;2023-11-19T00:07:43;99197.56;;;36.50;21.53
47935;BME280;33704;43.592;-79.628;2023-11-19T00:08:15;99193.59;;;36.50;21.52
47935;BME280;33704;43.592;-79.628;2023-11-19T00:08:46;99196.62;;;36.51;22.14
47935;BME280;33704;43.592;-79.628;2023-11-19T00:09:18;99195.06;;;36.50;22.12
47935;BME280;33704;43.592;-79.628;2023-11-19T00:09:50;99194.82;;;36.50;21.47
47935;BME280;33704;43.592;-79.628;2023-11-19T00:10:22;99190.67;;;36.50;21.89
47935;BME280;33704;43.592;-79.628;2023-11-19T00:10:54;99194.96;;;36.50;21.98
47935;BME280;33704;43.592;-79.628;2023-11-19T00:11:26;99192.69;;;36.50;22.07
47935;BME280;33704;43.592;-79.628;2023-11-19T00:11:58;99191.11;;;36.50;21.98
47935;BME280;33704;43.592;-79.628;2023-11-19T00:12:30;99190.44;;;36.45;21.94
47935;BME280;33704;43.592;-79.628;2023-11-19T00:13:03;99190.02;;;36.49;21.54
47935;BME280;33704;43.592;-79.628;2023-11-19T00:13:35;99191.02;;;36.51;22.23
47935;BME280;33704;43.592;-79.628;2023-11-19T00:14:06;99186.64;;;36.52;22.61
47935;BME280;33704;43.592;-79.628;2023-11-19T00:14:38;99186.38;;;36.53;22.68
47935;BME280;33704;43.592;-79.628;2023-11-19T00:15:12;99186.05;;;36.56;22.59
47935;BME280;33704;43.592;-79.628;2023-11-19T00:15:44;99185.52;;;36.61;22.46
47935;BME280;33704;43.592;-79.628;2023-11-19T00:16:16;99185.98;;;36.60;22.49
47935;BME280;33704;43.592;-79.628;2023-11-19T00:16:48;99184.96;;;36.64;22.52
47935;BME280;33704;43.592;-79.628;2023-11-19T00:17:20;99185.61;;;36.64;22.58
47935;BME280;33704;43.592;-79.628;2023-11-19T00:17:53;99184.73;;;36.64;22.62
47935;BME280;33704;43.592;-79.628;2023-11-19T00:18:24;99185.54;;;36.68;22.56
47935;BME280;33704;43.592;-79.628;2023-11-19T00:18:56;99186.19;;;36.68;22.57
47935;BME280;33704;43.592;-79.628;2023-11-19T00:19:28;99181.22;;;36.73;22.58
47935;BME280;33704;43.592;-79.628;2023-11-19T00:20:01;99186.55;;;36.76;22.56
47935;BME280;33704;43.592;-79.628;2023-11-19T00:20:33;99185.14;;;36.79;22.20
47935;BME280;33704;43.592;-79.628;2023-11-19T00:21:10;99187.24;;;36.79;21.45
47935;BME280;33704;43.592;-79.628;2023-11-19T00:21:42;99181.91;;;36.76;21.36
47935;BME280;33704;43.592;-79.628;2023-11-19T00:22:14;99183.17;;;36.75;21.25
47935;BME280;33704;43.592;-79.628;2023-11-19T00:22:46;99181.12;;;36.77;21.75
47935;BME280;33704;43.592;-79.628;2023-11-19T00:23:18;99178.91;;;36.75;21.66
47935;BME280;33704;43.592;-79.628;2023-11-19T00:23:58;99181.43;;;36.75;21.98
47935;BME280;33704;43.592;-79.628;2023-11-19T00:24:30;99184.15;;;36.73;21.65
47935;BME280;33704;43.592;-79.628;2023-11-19T00:25:03;99181.27;;;36.76;21.66
47935;BME280;33704;43.592;-79.628;2023-11-19T00:25:34;99178.00;;;36.73;21.33
47935;BME280;33704;43.592;-79.628;2023-11-19T00:26:06;99181.71;;;36.73;21.15
47935;BME280;33704;43.592;-79.628;2023-11-19T00:26:38;99178.38;;;36.72;21.31
47935;BME280;33704;43.592;-79.628;2023-11-19T00:27:10;99177.49;;;36.73;21.34
47935;BME280;33704;43.592;-79.628;2023-11-19T00:27:42;99178.43;;;36.71;21.18
47935;BME280;33704;43.592;-79.628;2023-11-19T00:28:15;99180.44;;;36.70;21.37
47935;BME280;33704;43.592;-79.628;2023-11-19T00:28:46;99178.35;;;36.69;21.52
47935;BME280;33704;43.592;-79.628;2023-11-19T00:29:18;99180.34;;;36.71;21.44
47935;BME280;33704;43.592;-79.628;2023-11-19T00:29:50;99180.50;;;36.71;21.14
47935;BME280;33704;43.592;-79.628;2023-11-19T00:30:22;99181.38;;;36.69;21.19
47935;BME280;33704;43.592;-79.628;2023-11-19T00:30:54;99180.83;;;36.69;21.56
47935;BME280;33704;43.592;-79.628;2023-11-19T00:31:26;99180.36;;;36.69;21.58
47935;BME280;33704;43.592;-79.628;2023-11-19T00:31:58;99178.50;;;36.68;21.66
47935;BME280;33704;43.592;-79.628;2023-11-19T00:32:30;99178.21;;;36.67;21.46
47935;BME280;33704;43.592;-79.628;2023-11-19T00:33:03;99182.19;;;36.66;21.18
47935;BME280;33704;43.592;-79.628;2023-11-19T00:33:35;99183.37;;;36.65;21.26
47935;BME280;33704;43.592;-79.628;2023-11-19T00:34:06;99180.85;;;36.65;21.24
47935;BME280;33704;43.592;-79.628;2023-11-19T00:34:38;99185.03;;;36.63;22.37
47935;BME280;33704;43.592;-79.628;2023-11-19T00:35:11;99183.80;;;36.64;23.13
47935;BME280;33704;43.592;-79.628;2023-11-19T00:35:43;99185.86;;;36.66;24.08
47935;BME280;33704;43.592;-79.628;2023-11-19T00:36:15;99183.14;;;36.63;24.62
47935;BME280;33704;43.592;-79.628;2023-11-19T00:36:47;99179.27;;;36.66;23.58
47935;BME280;33704;43.592;-79.628;2023-11-19T00:37:22;99182.72;;;36.58;23.72
47935;BME280;33704;43.592;-79.628;2023-11-19T00:37:53;99181.20;;;36.55;23.45
47935;BME280;33704;43.592;-79.628;2023-11-19T00:38:26;99181.95;;;36.56;23.69
47935;BME280;33704;43.592;-79.628;2023-11-19T00:39:00;99181.11;;;36.56;23.91
47935;BME280;33704;43.592;-79.628;2023-11-19T00:39:32;99181.97;;;36.54;24.21
47935;BME280;33704;43.592;-79.628;2023-11-19T00:40:05;99183.58;;;36.52;23.82
47935;BME280;33704;43.592;-79.628;2023-11-19T00:40:37;99182.35;;;36.55;23.70
47935;BME280;33704;43.592;-79.628;2023-11-19T00:41:16;99186.67;;;36.55;23.75
47935;BME280;33704;43.592;-79.628;2023-11-19T00:41:49;99189.26;;;36.51;23.68
47935;BME280;33704;43.592;-79.628;2023-11-19T00:42:22;99188.87;;;36.52;23.60
47935;BME280;33704;43.592;-79.628;2023-11-19T00:42:54;99188.12;;;36.51;23.71
47935;BME280;33704;43.592;-79.628;2023-11-19T00:43:26;99190.12;;;36.50;23.78
47935;BME280;33704;43.592;-79.628;2023-11-19T00:43:58;99191.63;;;36.54;23.72
47935;BME280;33704;43.592;-79.628;2023-11-19T00:44:30;99189.11;;;36.54;23.54
47935;BME280;33704;43.592;-79.628;2023-11-19T00:45:04;99191.09;;;36.52;23.68
47935;BME280;33704;43.592;-79.628;2023-11-19T00:45:36;99189.50;;;36.54;23.55
47935;BME280;33704;43.592;-79.628;2023-11-19T00:46:08;99192.58;;;36.55;23.33
47935;BME280;33704;43.592;-79.628;2023-11-19T00:46:41;99185.55;;;36.55;23.17
47935;BME280;33704;43.592;-79.628;2023-11-19T00:47:13;99186.11;;;36.53;23.16
47935;BME280;33704;43.592;-79.628;2023-11-19T00:47:45;99186.42;;;36.53;22.90
47935;BME280;33704;43.592;-79.628;2023-11-19T00:48:17;99187.04;;;36.55;22.96
47935;BME280;33704;43.592;-79.628;2023-11-19T00:48:49;99183.56;;;36.55;22.76
47935;BME280;33704;43.592;-79.628;2023-11-19T00:49:21;99182.21;;;36.55;22.67
47935;BME280;33704;43.592;-79.628;2023-11-19T00:49:53;99182.73;;;36.53;22.32
47935;BME280;33704;43.592;-79.628;2023-11-19T00:50:25;99181.14;;;36.53;22.33
47935;BME280;33704;43.592;-79.628;2023-11-19T00:52:18;99185.71;;;36.52;22.28
47935;BME280;33704;43.592;-79.628;2023-11-19T00:52:57;99180.53;;;36.52;22.76
47935;BME280;33704;43.592;-79.628;2023-11-19T00:53:34;99181.71;;;36.55;23.14
47935;BME280;33704;43.592;-79.628;2023-11-19T00:54:06;99183.85;;;36.54;22.98
47935;BME280;33704;43.592;-79.628;2023-11-19T00:54:37;99177.36;;;36.56;22.62
47935;BME280;33704;43.592;-79.628;2023-11-19T00:55:10;99179.03;;;36.58;22.40
47935;BME280;33704;43.592;-79.628;2023-11-19T00:55:42;99176.98;;;36.57;22.41
47935;BME280;33704;43.592;-79.628;2023-11-19T00:56:14;99171.46;;;36.56;22.90
47935;BME280;33704;43.592;-79.628;2023-11-19T00:56:51;99175.41;;;36.56;22.75
47935;BME280;33704;43.592;-79.628;2023-11-19T00:57:23;99175.02;;;36.59;23.13
47935;BME280;33704;43.592;-79.628;2023-11-19T00:57:55;99173.40;;;36.63;23.45
47935;BME280;33704;43.592;-79.628;2023-11-19T00:58:27;99174.56;;;36.57;23.03
47935;BME280;33704;43.592;-79.628;2023-11-19T00:58:59;99176.34;;;36.56;23.28
47935;BME280;33704;43.592;-79.628;2023-11-19T00:59:31;99178.87;;;36.54;23.12
47935;BME280;33704;43.592;-79.628;2023-11-19T01:00:04;99179.78;;;36.52;23.05
47935;BME280;33704;43.592;-79.628;2023-11-19T01:00:36;99177.82;;;36.52;22.97
47935;BME280;33704;43.592;-79.628;2023-11-19T01:01:08;99174.87;;;36.50;23.08
47935;BME280;33704;43.592;-79.628;2023-11-19T01:01:40;99179.15;;;36.50;22.97
47935;BME280;33704;43.592;-79.628;2023-11-19T01:02:12;99176.63;;;36.49;22.72
47935;BME280;33704;43.592;-79.628;2023-11-19T01:02:44;99179.57;;;36.47;22.84
47935;BME280;33704;43.592;-79.628;2023-11-19T01:03:17;99176.98;;;36.45;22.90
47935;BME280;33704;43.592;-79.628;2023-11-19T01:03:49;99177.59;;;36.45;22.98
47935;BME280;33704;43.592;-79.628;2023-11-19T01:04:21;99180.46;;;36.45;22.62
47935;BME280;33704;43.592;-79.628;2023-11-19T01:04:53;99182.96;;;36.42;22.73
47935;BME280;33704;43.592;-79.628;2023-11-19T01:05:26;99181.04;;;36.43;22.78
47935;BME280;33704;43.592;-79.628;2023-11-19T01:05:58;99180.94;;;36.45;22.59
47935;BME280;33704;43.592;-79.628;2023-11-19T01:06:31;99177.37;;;36.41;22.44
47935;BME280;33704;43.592;-79.628;2023-11-19T01:07:04;99178.67;;;36.41;22.67
47935;BME280;33704;43.592;-79.628;2023-11-19T01:07:36;99178.16;;;36.41;22.89
47935;BME280;33704;43.592;-79.628;2023-11-19T01:08:07;99177.31;;;36.38;22.44
47935;BME280;33704;43.592;-79.628;2023-11-19T01:08:40;99177.12;;;36.37;22.50
47935;BME280;33704;43.592;-79.628;2023-11-19T01:09:13;99173.90;;;36.38;22.55
47935;BME280;33704;43.592;-79.628;2023-11-19T01:09:45;99174.43;;;36.36;22.38
47935;BME280;33704;43.592;-79.628;2023-11-19T01:10:17;99171.59;;;36.40;22.54
47935;BME280;33704;43.592;-79.628;2023-11-19T01:10:49;99175.75;;;36.38;22.29
47935;BME280;33704;43.592;-79.628;2023-11-19T01:11:21;99174.66;;;36.41;22.36
47935;BME280;33704;43.592;-79.628;2023-11-19T01:11:54;99174.13;;;36.38;22.35
47935;BME280;33704;43.592;-79.628;2023-11-19T01:12:26;99174.87;;;36.38;22.49
47935;BME280;33704;43.592;-79.628;2023-11-19T01:12:58;99172.65;;;36.37;22.29
47935;BME280;33704;43.592;-79.628;2023-11-19T01:13:30;99174.26;;;36.37;22.45
47935;BME280;33704;43.592;-79.628;2023-11-19T01:14:03;99171.09;;;36.36;22.39
47935;BME280;33704;43.592;-79.628;2023-11-19T01:14:34;99170.78;;;36.38;21.97
47935;BME280;33704;43.592;-79.628;2023-11-19T01:15:07;99164.96;;;36.38;22.34
47935;BME280;33704;43.592;-79.628;2023-11-19T01:15:39;99168.65;;;36.38;22.30
47935;BME280;33704;43.592;-79.628;2023-11-19T01:16:11;99168.49;;;36.38;22.34
47935;BME280;33704;43.592;-79.628;2023-11-19T01:16:43;99166.20;;;36.41;21.99
47935;BME280;33704;43.592;-79.628;2023-11-19T01:17:15;99167.05;;;36.39;21.87
47935;BME280;33704;43.592;-79.628;2023-11-19T01:17:47;99164.08;;;36.38;22.35
47935;BME280;33704;43.592;-79.628;2023-11-19T01:18:18;99167.22;;;36.42;22.14
47935;BME280;33704;43.592;-79.628;2023-11-19T01:18:51;99162.55;;;36.40;22.21
47935;BME280;33704;43.592;-79.628;2023-11-19T01:19:23;99164.43;;;36.40;21.98
47935;BME280;33704;43.592;-79.628;2023-11-19T01:19:55;99163.68;;;36.37;22.12
47935;BME280;33704;43.592;-79.628;2023-11-19T01:20:27;99166.00;;;36.37;22.29
47935;BME280;33704;43.592;-79.628;2023-11-19T01:20:59;99164.89;;;36.38;22.93
47935;BME280;33704;43.592;-79.628;2023-11-19T01:21:31;99164.50;;;36.37;22.55
47935;BME280;33704;43.592;-79.628;2023-11-19T01:22:03;99162.56;;;36.37;23.07
47935;BME280;33704;43.592;-79.628;2023-11-19T01:22:35;99162.15;;;36.38;23.86
47935;BME280;33704;43.592;-79.628;2023-11-19T01:23:07;99161.56;;;36.35;22.95
47935;BME280;33704;43.592;-79.628;2023-11-19T01:23:39;99160.32;;;36.32;23.41
47935;BME280;33704;43.592;-79.628;2023-11-19T01:24:12;99161.61;;;36.35;23.54
47935;BME280;33704;43.592;-79.628;2023-11-19T01:24:44;99160.96;;;36.32;22.94
47935;BME280;33704;43.592;-79.628;2023-11-19T01:25:16;99160.74;;;36.29;23.95
47935;BME280;33704;43.592;-79.628;2023-11-19T01:25:48;99164.30;;;36.30;23.84
47935;BME280;33704;43.592;-79.628;2023-11-19T01:26:20;99160.68;;;36.29;23.70
47935;BME280;33704;43.592;-79.628;2023-11-19T01:26:52;99160.09;;;36.30;25.00
47935;BME280;33704;43.592;-79.628;2023-11-19T01:27:25;99161.98;;;36.29;23.99
47935;BME280;33704;43.592;-79.628;2023-11-19T01:27:57;99160.96;;;36.28;24.28
47935;BME280;33704;43.592;-79.628;2023-11-19T01:28:28;99155.44;;;36.27;23.63
47935;BME280;33704;43.592;-79.628;2023-11-19T01:29:02;99155.36;;;36.31;23.68
47935;BME280;33704;43.592;-79.628;2023-11-19T01:29:33;99160.15;;;36.31;25.53
47935;BME280;33704;43.592;-79.628;2023-11-19T01:30:07;99158.85;;;36.30;24.27
47935;BME280;33704;43.592;-79.628;2023-11-19T01:30:39;99158.64;;;36.30;25.62
47935;BME280;33704;43.592;-79.628;2023-11-19T01:31:12;99155.70;;;36.31;24.02
47935;BME280;33704;43.592;-79.628;2023-11-19T01:31:47;99156.55;;;36.28;24.04
47935;BME280;33704;43.592;-79.628;2023-11-19T01:32:18;99157.86;;;36.29;24.44
47935;BME280;33704;43.592;-79.628;2023-11-19T01:32:51;99156.63;;;36.27;24.46
47935;BME280;33704;43.592;-79.628;2023-11-19T01:33:23;99160.98;;;36.27;24.24
47935;BME280;33704;43.592;-79.628;2023-11-19T01:33:55;99159.61;;;36.26;22.97
47935;BME280;33704;43.592;-79.628;2023-11-19T01:34:27;99156.82;;;36.25;25.37
47935;BME280;33704;43.592;-79.628;2023-11-19T01:34:59;99159.50;;;36.23;25.71
47935;BME280;33704;43.592;-79.628;2023-11-19T01:35:31;99157.97;;;36.22;24.23
47935;BME280;33704;43.592;-79.628;2023-11-19T01:36:03;99155.62;;;36.24;23.87
47935;BME280;33704;43.592;-79.628;2023-11-19T01:36:35;99153.16;;;36.24;24.47
47935;BME280;33704;43.592;-79.628;2023-11-19T01:37:07;99148.32;;;36.24;24.17
47935;BME280;33704;43.592;-79.628;2023-11-19T01:37:39;99153.79;;;36.22;24.95
47935;BME280;33704;43.592;-79.628;2023-11-19T01:38:11;99151.92;;;36.19;24.91
47935;BME280;33704;43.592;-79.628;2023-11-19T01:38:43;99153.00;;;36.22;25.10
47935;BME280;33704;43.592;-79.628;2023-11-19T01:39:15;99149.54;;;36.22;24.31
47935;BME280;33704;43.592;-79.628;2023-11-19T01:39:47;99152.25;;;36.20;26.04
47935;BME280;33704;43.592;-79.628;2023-11-19T01:40:21;99152.25;;;36.20;23.60
47935;BME280;33704;43.592;-79.628;2023-11-19T01:40:56;99152.70;;;36.21;23.74
47935;BME280;33704;43.592;-79.628;2023-11-19T01:41:28;99151.88;;;36.22;24.65
47935;BME280;33704;43.592;-79.628;2023-11-19T01:42:01;99151.21;;;36.21;24.50
47935;BME280;33704;43.592;-79.628;2023-11-19T01:42:37;99151.74;;;36.21;24.29
47935;BME280;33704;43.592;-79.628;2023-11-19T01:43:08;99151.18;;;36.20;23.51
47935;BME280;33704;43.592;-79.628;2023-11-19T01:43:41;99149.34;;;36.19;23.41
47935;BME280;33704;43.592;-79.628;2023-11-19T01:44:13;99149.40;;;36.17;23.82
47935;BME280;33704;43.592;-79.628;2023-11-19T01:44:56;99150.92;;;36.19;24.76
47935;BME280;33704;43.592;-79.628;2023-11-19T01:45:30;99150.50;;;36.21;24.56
47935;BME280;33704;43.592;-79.628;2023-11-19T01:46:04;99152.09;;;36.24;24.80
47935;BME280;33704;43.592;-79.628;2023-11-19T01:46:36;99148.71;;;36.20;23.42
47935;BME280;33704;43.592;-79.628;2023-11-19T01:47:09;99151.69;;;36.18;25.03
47935;BME280;33704;43.592;-79.628;2023-11-19T01:47:41;99144.53;;;36.20;24.05
47935;BME280;33704;43.592;-79.628;2023-11-19T01:48:14;99146.73;;;36.20;24.85
47935;BME280;33704;43.592;-79.628;2023-11-19T01:48:47;99152.25;;;36.19;24.17
47935;BME280;33704;43.592;-79.628;2023-11-19T01:49:20;99148.17;;;36.21;23.76
47935;BME280;33704;43.592;-79.628;2023-11-19T01:49:52;99150.43;;;36.24;24.44
47935;BME280;33704;43.592;-79.628;2023-11-19T01:50:25;99148.84;;;36.25;23.79
47935;BME280;33704;43.592;-79.628;2023-11-19T01:50:57;99150.76;;;36.23;25.00
47935;BME280;33704;43.592;-79.628;2023-11-19T01:51:30;99152.95;;;36.21;22.99
47935;BME280;33704;43.592;-79.628;2023-11-19T01:52:03;99151.81;;;36.22;23.72
47935;BME280;33704;43.592;-79.628;2023-11-19T01:52:35;99148.83;;;36.22;23.39
47935;BME280;33704;43.592;-79.628;2023-11-19T01:53:07;99149.21;;;36.22;23.56
47935;BME280;33704;43.592;-79.628;2023-11-19T01:53:40;99151.33;;;36.23;24.10
47935;BME280;33704;43.592;-79.628;2023-11-19T01:54:12;99150.36;;;36.19;23.81
47935;BME280;33704;43.592;-79.628;2023-11-19T01:54:44;99148.35;;;36.22;23.89
47935;BME280;33704;43.592;-79.628;2023-11-19T01:55:16;99150.57;;;36.19;24.25
47935;BME280;33704;43.592;-79.628;2023-11-19T01:55:49;99153.81;;;36.22;24.27
47935;BME280;33704;43.592;-79.628;2023-11-19T01:56:22;99149.19;;;36.20;23.28
47935;BME280;33704;43.592;-79.628;2023-11-19T01:56:56;99153.43;;;36.22;24.79
47935;BME280;33704;43.592;-79.628;2023-11-19T01:57:28;99153.00;;;36.21;24.24
47935;BME280;33704;43.592;-79.628;2023-11-19T01:58:02;99154.24;;;36.22;24.04
47935;BME280;33704;43.592;-79.628;2023-11-19T01:58:34;99148.62;;;36.20;23.30
47935;BME280;33704;43.592;-79.628;2023-11-19T01:59:07;99151.74;;;36.23;24.18
47935;BME280;33704;43.592;-79.628;2023-11-19T01:59:41;99150.60;;;36.22;23.29
47935;BME280;33704;43.592;-79.628;2023-11-19T02:00:17;99146.88;;;36.20;23.83
47935;BME280;33704;43.592;-79.628;2023-11-19T02:00:50;99146.95;;;36.23;22.90
47935;BME280;33704;43.592;-79.628;2023-11-19T02:01:22;99150.92;;;36.24;23.98
47935;BME280;33704;43.592;-79.628;2023-11-19T02:01:55;99152.82;;;36.20;23.87
47935;BME280;33704;43.592;-79.628;2023-11-19T02:02:26;99150.73;;;36.20;23.31
47935;BME280;33704;43.592;-79.628;2023-11-19T02:02:58;99147.46;;;36.21;24.26
47935;BME280;33704;43.592;-79.628;2023-11-19T02:03:31;99147.72;;;36.22;23.88
47935;BME280;33704;43.592;-79.628;2023-11-19T02:04:04;99151.91;;;36.21;23.33
47935;BME280;33704;43.592;-79.628;2023-11-19T02:04:36;99147.13;;;36.24;23.92
47935;BME280;33704;43.592;-79.628;2023-11-19T02:05:08;99151.36;;;36.24;24.91
47935;BME280;33704;43.592;-79.628;2023-11-19T02:05:40;99150.90;;;36.22;23.46
47935;BME280;33704;43.592;-79.628;2023-11-19T02:06:12;99153.80;;;36.21;23.53
47935;BME280;33704;43.592;-79.628;2023-11-19T02:06:45;99155.62;;;36.20;23.89
47935;BME280;33704;43.592;-79.628;2023-11-19T02:07:20;99151.87;;;36.20;23.39
47935;BME280;33704;43.592;-79.628;2023-11-19T02:07:52;99154.28;;;36.20;23.60
47935;BME280;33704;43.592;-79.628;2023-11-19T02:08:25;99152.95;;;36.19;23.26
47935;BME280;33704;43.592;-79.628;2023-11-19T02:08:57;99152.42;;;36.20;23.03
47935;BME280;33704;43.592;-79.628;2023-11-19T02:09:29;99154.66;;;36.19;23.59
47935;BME280;33704;43.592;-79.628;2023-11-19T02:10:02;99151.64;;;36.18;24.15
47935;BME280;33704;43.592;-79.628;2023-11-19T02:10:34;99151.61;;;36.19;24.05
47935;BME280;33704;43.592;-79.628;2023-11-19T02:11:06;99151.33;;;36.18;23.48
47935;BME280;33704;43.592;-79.628;2023-11-19T02:11:40;99155.12;;;36.19;24.60
47935;BME280;33704;43.592;-79.628;2023-11-19T02:12:12;99154.12;;;36.17;23.76
47935;BME280;33704;43.592;-79.628;2023-11-19T02:12:44;99148.20;;;36.17;23.62
47935;BME280;33704;43.592;-79.628;2023-11-19T02:13:17;99152.79;;;36.18;24.26
47935;BME280;33704;43.592;-79.628;2023-11-19T02:13:49;99157.84;;;36.18;23.70
47935;BME280;33704;43.592;-79.628;2023-11-19T02:14:25;99154.47;;;36.15;25.01
47935;BME280;33704;43.592;-79.628;2023-11-19T02:14:58;99153.57;;;36.16;23.82
47935;BME280;33704;43.592;-79.628;2023-11-19T02:15:30;99156.23;;;36.15;23.35
47935;BME280;33704;43.592;-79.628;2023-11-19T02:16:03;99154.60;;;36.20;23.30
47935;BME280;33704;43.592;-79.628;2023-11-19T02:16:35;99153.00;;;36.17;23.06
47935;BME280;33704;43.592;-79.628;2023-11-19T02:17:07;99147.40;;;36.15;22.75
47935;BME280;33704;43.592;-79.628;2023-11-19T02:17:39;99155.74;;;36.17;23.34
47935;BME280;33704;43.592;-79.628;2023-11-19T02:18:20;99151.55;;;36.15;23.14
47935;BME280;33704;43.592;-79.628;2023-11-19T02:18:57;99155.63;;;36.15;24.05
47935;BME280;33704;43.592;-79.628;2023-11-19T02:19:29;99151.97;;;36.14;23.75
47935;BME280;33704;43.592;-79.628;2023-11-19T02:20:02;99151.49;;;36.14;23.31
47935;BME280;33704;43.592;-79.628;2023-11-19T02:20:34;99152.97;;;36.15;23.96
47935;BME280;33704;43.592;-79.628;2023-11-19T02:21:06;99146.68;;;36.14;23.08
47935;BME280;33704;43.592;-79.628;2023-11-19T02:21:38;99149.48;;;36.14;22.98
47935;BME280;33704;43.592;-79.628;2023-11-19T02:22:10;99151.31;;;36.13;22.80
47935;BME280;33704;43.592;-79.628;2023-11-19T02:22:43;99147.45;;;36.14;22.99
47935;BME280;33704;43.592;-79.628;2023-11-19T02:23:15;99149.17;;;36.13;22.86
47935;BME280;33704;43.592;-79.628;2023-11-19T02:23:47;99149.05;;;36.11;23.10
47935;BME280;33704;43.592;-79.628;2023-11-19T02:24:21;99144.09;;;36.13;23.29
47935;BME280;33704;43.592;-79.628;2023-11-19T02:24:59;99145.54;;;36.11;23.71
47935;BME280;33704;43.592;-79.628;2023-11-19T02:25:33;99150.38;;;36.13;23.66
47935;BME280;33704;43.592;-79.628;2023-11-19T02:26:13;99150.72;;;36.17;23.38
47935;BME280;33704;43.592;-79.628;2023-11-19T02:26:52;99145.74;;;36.20;23.02
47935;BME280;33704;43.592;-79.628;2023-11-19T02:27:38;99147.94;;;36.22;23.14
47935;BME280;33704;43.592;-79.628;2023-11-19T02:28:10;99149.02;;;36.23;22.73
47935;BME280;33704;43.592;-79.628;2023-11-19T02:28:43;99150.46;;;36.24;22.91
47935;BME280;33704;43.592;-79.628;2023-11-19T02:29:15;99152.05;;;36.29;22.82
47935;BME280;33704;43.592;-79.628;2023-11-19T02:29:54;99149.57;;;36.35;22.49
47935;BME280;33704;43.592;-79.628;2023-11-19T02:30:43;99150.24;;;36.42;23.13
47935;BME280;33704;43.592;-79.628;2023-11-19T02:31:15;99150.86;;;36.49;22.81
47935;BME280;33704;43.592;-79.628;2023-11-19T02:31:56;99147.14;;;36.53;22.94
47935;BME280;33704;43.592;-79.628;2023-11-19T02:32:36;99149.71;;;36.57;22.74
47935;BME280;33704;43.592;-79.628;2023-11-19T02:33:10;99147.33;;;36.60;22.77
47935;BME280;33704;43.592;-79.628;2023-11-19T02:33:42;99149.11;;;36.64;22.85
47935;BME280;33704;43.592;-79.628;2023-11-19T02:34:14;99148.05;;;36.63;22.49
47935;BME280;33704;43.592;-79.628;2023-11-19T02:34:46;99146.59;;;36.62;22.51
47935;BME280;33704;43.592;-79.628;2023-11-19T02:35:18;99144.78;;;36.67;22.05
47935;BME280;33704;43.592;-79.628;2023-11-19T02:35:50;99150.00;;;36.68;22.32
47935;BME280;33704;43.592;-79.628;2023-11-19T02:36:22;99150.03;;;36.66;22.37
47935;BME280;33704;43.592;-79.628;2023-11-19T02:36:54;99142.07;;;36.66;22.50
47935;BME280;33704;43.592;-79.628;2023-11-19T02:37:26;99146.39;;;36.66;22.51
47935;BME280;33704;43.592;-79.628;2023-11-19T02:37:58;99150.09;;;36.60;22.64
47935;BME280;33704;43.592;-79.628;2023-11-19T02:38:31;99146.05;;;36.55;22.24
47935;BME280;33704;43.592;-79.628;2023-11-19T02:39:04;99145.10;;;36.52;22.64
47935;BME280;33704;43.592;-79.628;2023-11-19T02:39:36;99143.79;;;36.54;22.09
47935;BME280;33704;43.592;-79.628;2023-11-19T02:40:08;99144.24;;;36.55;22.60
47935;BME280;33704;43.592;-79.628;2023-11-19T02:40:40;99146.80;;;36.57;23.00
47935;BME280;33704;43.592;-79.628;2023-11-19T02:41:13;99143.86;;;36.58;22.66
47935;BME280;33704;43.592;-79.628;2023-11-19T02:41:45;99146.51;;;36.59;22.40
47935;BME280;33704;43.592;-79.628;2023-11-19T02:42:17;99146.92;;;36.57;22.66
47935;BME280;33704;43.592;-79.628;2023-11-19T02:42:50;99144.83;;;36.59;22.22
47935;BME280;33704;43.592;-79.628;2023-11-19T02:43:23;99145.25;;;36.56;22.42
47935;BME280;33704;43.592;-79.628;2023-11-19T02:43:55;99145.66;;;36.55;22.19
47935;BME280;33704;43.592;-79.628;2023-11-19T02:44:27;99142.87;;;36.55;22.19
47935;BME280;33704;43.592;-79.628;2023-11-19T02:44:59;99144.45;;;36.56;22.51
47935;BME280;33704;43.592;-79.628;2023-11-19T02:45:31;99147.17;;;36.48;22.68
47935;BME280;33704;43.592;-79.628;2023-11-19T02:46:04;99149.58;;;36.49;23.14
47935;BME280;33704;43.592;-79.628;2023-11-19T02:46:36;99150.13;;;36.48;23.09
47935;BME280;33704;43.592;-79.628;2023-11-19T02:47:08;99148.87;;;36.49;22.80
47935;BME280;33704;43.592;-79.628;2023-11-19T02:47:40;99152.14;;;36.51;22.33
47935;BME280;33704;43.592;-79.628;2023-11-19T02:48:12;99152.37;;;36.55;22.34
47935;BME280;33704;43.592;-79.628;2023-11-19T02:48:44;99151.63;;;36.55;22.64
47935;BME280;33704;43.592;-79.628;2023-11-19T02:49:16;99148.31;;;36.56;22.27
47935;BME280;33704;43.592;-79.628;2023-11-19T02:49:48;99147.71;;;36.55;22.17
47935;BME280;33704;43.592;-79.628;2023-11-19T02:50:21;99149.58;;;36.54;22.25